createdAt,value
2023-03-10T00:01:53.324Z,96709.84
2023-03-10T00:04:21.095Z,96708.28
2023-03-10T00:06:48.769Z,96719.47
2023-03-10T00:09:16.489Z,96714.53
2023-03-10T00:11:45.549Z,96716.00
2023-03-10T00:14:13.596Z,96702.22
2023-03-10T00:16:41.290Z,96702.78
2023-03-10T00:19:09.170Z,96703.59
2023-03-10T00:21:36.861Z,96697.22
2023-03-10T00:24:04.643Z,96693.38
2023-03-10T00:26:32.325Z,96692.50
2023-03-10T00:29:01.362Z,96679.88
2023-03-10T00:31:31.314Z,96676.72
2023-03-10T00:34:00.625Z,96704.94
2023-03-10T00:36:29.601Z,96708.84
2023-03-10T00:38:57.838Z,96710.06
2023-03-10T00:41:30.603Z,96712.22
2023-03-10T00:43:58.987Z,96707.28
2023-03-10T00:46:29.893Z,96726.28
2023-03-10T00:48:57.784Z,96721.47
2023-03-10T00:51:25.671Z,96702.13
2023-03-10T00:53:53.330Z,96709.94
2023-03-10T00:56:22.937Z,96701.78
2023-03-10T00:58:52.526Z,96712.09
2023-03-10T01:01:23.132Z,96708.06
2023-03-10T01:03:53.063Z,96712.66
2023-03-10T01:06:21.673Z,96716.31
2023-03-10T01:08:49.336Z,96699.56
2023-03-10T01:11:18.705Z,96701.91
2023-03-10T01:13:48.106Z,96695.22
2023-03-10T01:16:16.461Z,96689.16
2023-03-10T01:18:44.929Z,96703.00
2023-03-10T01:21:19.122Z,96698.78
2023-03-10T01:23:46.891Z,96706.81
2023-03-10T01:26:18.484Z,96709.63
2023-03-10T01:28:46.648Z,96704.81
2023-03-10T01:31:14.927Z,96695.53
2023-03-10T01:33:43.037Z,96706.38
2023-03-10T01:36:11.833Z,96702.44
2023-03-10T01:38:40.931Z,96711.44
2023-03-10T01:41:09.016Z,96711.09
2023-03-10T01:43:38.493Z,96699.44
2023-03-10T01:46:38.793Z,96692.06
2023-03-10T01:49:15.453Z,96686.47
2023-03-10T01:51:46.902Z,96696.78
2023-03-10T01:54:19.609Z,96689.94
2023-03-10T01:56:49.077Z,96672.50
2023-03-10T01:59:16.920Z,96689.47
2023-03-10T02:01:44.788Z,96686.91
2023-03-10T02:04:17.529Z,96696.09
2023-03-10T02:06:48.699Z,96687.94
2023-03-10T02:09:19.527Z,96691.06
2023-03-10T02:11:49.081Z,96689.03
2023-03-10T02:14:17.258Z,96691.06
2023-03-10T02:16:45.117Z,96643.31
2023-03-10T02:19:24.129Z,96685.47
2023-03-10T02:22:02.465Z,96709.28
2023-03-10T02:24:40.746Z,96697.56
2023-03-10T02:27:27.002Z,96654.50
2023-03-10T02:30:00.635Z,96685.56
2023-03-10T02:32:31.695Z,96685.91
2023-03-10T02:34:59.688Z,96683.22
2023-03-10T02:37:31.687Z,96689.06
2023-03-10T02:40:02.390Z,96686.91
2023-03-10T02:42:35.331Z,96667.13
2023-03-10T02:45:04.483Z,96675.72
2023-03-10T02:47:32.053Z,96669.69
2023-03-10T02:49:59.772Z,96694.28
2023-03-10T02:52:34.153Z,96692.84
2023-03-10T02:55:01.934Z,96678.66
2023-03-10T02:57:30.986Z,96687.59
2023-03-10T02:59:58.660Z,96673.72
2023-03-10T03:02:26.450Z,96669.34
2023-03-10T03:04:54.151Z,96661.84
2023-03-10T03:07:21.899Z,96672.94
2023-03-10T03:09:49.731Z,96669.13
2023-03-10T03:12:17.422Z,96676.41
2023-03-10T03:14:46.472Z,96675.28
2023-03-10T03:17:14.175Z,96673.63
2023-03-10T03:19:41.809Z,96676.19
2023-03-10T03:22:09.446Z,96655.34
2023-03-10T03:24:37.116Z,96666.75
2023-03-10T03:27:06.474Z,96653.81
2023-03-10T03:29:34.138Z,96669.25
2023-03-10T03:32:03.195Z,96692.72
2023-03-10T03:34:30.911Z,96681.56
2023-03-10T03:37:01.058Z,96684.78
2023-03-10T03:39:28.734Z,96682.22
2023-03-10T03:41:57.404Z,96682.22
2023-03-10T03:44:25.141Z,96652.38
2023-03-10T03:46:52.851Z,96684.34
2023-03-10T03:49:21.921Z,96682.13
2023-03-10T03:51:49.615Z,96685.34
2023-03-10T03:54:17.372Z,96686.69
2023-03-10T03:56:45.078Z,96684.56
2023-03-10T03:59:12.672Z,96669.69
2023-03-10T04:01:40.468Z,96690.72
2023-03-10T04:04:08.210Z,96668.56
2023-03-10T04:06:37.232Z,96684.00
2023-03-10T04:09:05.232Z,96673.13
2023-03-10T04:11:32.972Z,96663.41
2023-03-10T04:14:00.661Z,96685.69
2023-03-10T04:16:28.392Z,96666.91
2023-03-10T04:18:56.044Z,96654.16
2023-03-10T04:21:23.828Z,96690.63
2023-03-10T04:23:52.955Z,96673.28
2023-03-10T04:26:20.916Z,96688.94
2023-03-10T04:28:48.496Z,96684.44
2023-03-10T04:31:18.264Z,96681.00
2023-03-10T04:33:46.248Z,96674.38
2023-03-10T04:36:13.911Z,96683.22
2023-03-10T04:38:42.017Z,96676.06
2023-03-10T04:41:11.244Z,96675.84
2023-03-10T04:43:42.015Z,96665.78
2023-03-10T04:46:10.692Z,96684.34
2023-03-10T04:48:38.576Z,96679.78
2023-03-10T04:51:09.004Z,96661.53
2023-03-10T04:53:37.747Z,96674.94
2023-03-10T04:56:08.290Z,96662.88
2023-03-10T04:58:37.339Z,96631.78
2023-03-10T05:01:09.855Z,96654.72
2023-03-10T05:03:40.802Z,96672.72
2023-03-10T05:06:13.971Z,96672.06
2023-03-10T05:08:41.864Z,96671.94
2023-03-10T05:11:09.943Z,96647.78
2023-03-10T05:13:39.017Z,96638.38
2023-03-10T05:16:13.782Z,96680.78
2023-03-10T05:18:41.491Z,96682.00
2023-03-10T05:21:09.462Z,96689.16
2023-03-10T05:23:37.080Z,96681.44
2023-03-10T05:26:06.327Z,96675.84
2023-03-10T05:28:34.011Z,96652.38
2023-03-10T05:31:03.061Z,96669.78
2023-03-10T05:33:31.577Z,96657.50
2023-03-10T05:35:59.333Z,96668.13
2023-03-10T05:38:27.056Z,96673.06
2023-03-10T05:40:54.740Z,96675.84
2023-03-10T05:43:22.492Z,96672.94
2023-03-10T05:45:56.149Z,96669.59
2023-03-10T05:48:25.710Z,96665.78
2023-03-10T05:50:59.556Z,96663.22
2023-03-10T05:53:27.732Z,96660.28
2023-03-10T05:55:56.090Z,96668.44
2023-03-10T05:58:23.980Z,96655.72
2023-03-10T06:00:51.870Z,96662.09
2023-03-10T06:03:20.610Z,96661.09
2023-03-10T06:05:49.695Z,96638.28
2023-03-10T06:08:17.468Z,96669.72
2023-03-10T06:10:46.124Z,96665.78
2023-03-10T06:13:13.816Z,96660.28
2023-03-10T06:15:41.919Z,96655.16
2023-03-10T06:18:09.580Z,96653.28
2023-03-10T06:20:39.950Z,96650.13
2023-03-10T06:23:08.950Z,96662.44
2023-03-10T06:25:36.605Z,96663.78
2023-03-10T06:28:04.794Z,96669.50
2023-03-10T06:30:32.719Z,96674.72
2023-03-10T06:33:01.355Z,96663.00
2023-03-10T06:35:29.916Z,96643.66
2023-03-10T06:37:57.579Z,96656.94
2023-03-10T06:40:26.741Z,96636.50
2023-03-10T06:42:54.462Z,96650.91
2023-03-10T06:45:22.589Z,96651.94
2023-03-10T06:47:50.285Z,96596.69
2023-03-10T06:50:18.213Z,96655.63
2023-03-10T06:52:46.998Z,96656.28
2023-03-10T06:55:15.992Z,96651.38
2023-03-10T06:57:45.046Z,96655.59
2023-03-10T07:00:15.833Z,96644.78
2023-03-10T07:02:43.557Z,96623.50
2023-03-10T07:05:13.337Z,96645.75
2023-03-10T07:07:41.188Z,96638.84
2023-03-10T07:10:10.318Z,96650.44
2023-03-10T07:12:38.046Z,96658.06
2023-03-10T07:15:08.524Z,96655.84
2023-03-10T07:17:38.197Z,96633.47
2023-03-10T07:20:06.978Z,96643.19
2023-03-10T07:22:34.539Z,96637.81
2023-03-10T07:25:02.091Z,96641.03
2023-03-10T07:27:29.714Z,96625.81
2023-03-10T07:29:57.442Z,96622.81
2023-03-10T07:32:26.503Z,96619.44
2023-03-10T07:34:54.396Z,96622.88
2023-03-10T07:37:22.142Z,96640.59
2023-03-10T07:39:49.953Z,96637.66
2023-03-10T07:42:17.613Z,96648.09
2023-03-10T07:44:45.230Z,96657.47
2023-03-10T07:47:12.864Z,96658.94
2023-03-10T07:49:46.378Z,96661.03
2023-03-10T07:52:15.171Z,96662.50
2023-03-10T07:54:44.178Z,96668.13
2023-03-10T07:57:11.959Z,96669.13
2023-03-10T07:59:40.330Z,96675.84
2023-03-10T08:02:08.550Z,96680.97
2023-03-10T08:04:36.478Z,96689.69
2023-03-10T08:07:05.625Z,96685.69
2023-03-10T08:09:33.397Z,96688.47
2023-03-10T08:12:02.240Z,96671.56
2023-03-10T08:14:30.921Z,96695.84
2023-03-10T08:16:58.700Z,96688.69
2023-03-10T08:19:27.549Z,96686.09
2023-03-10T08:21:56.203Z,96688.09
2023-03-10T08:24:25.513Z,96690.34
2023-03-10T08:26:53.319Z,96693.19
2023-03-10T08:29:21.716Z,96697.06
2023-03-10T08:31:49.402Z,96706.38
2023-03-10T08:34:17.511Z,96680.75
2023-03-10T08:36:45.746Z,96687.19
2023-03-10T08:39:14.122Z,96692.56
2023-03-10T08:41:46.633Z,96689.56
2023-03-10T08:44:17.636Z,96706.13
2023-03-10T08:46:47.920Z,96707.22
2023-03-10T08:49:17.761Z,96705.09
2023-03-10T08:51:45.721Z,96701.94
2023-03-10T08:54:15.360Z,96694.34
2023-03-10T08:56:44.542Z,96702.84
2023-03-10T08:59:12.375Z,96700.06
2023-03-10T09:01:40.788Z,96712.56
2023-03-10T09:04:10.289Z,96707.28
2023-03-10T09:06:38.687Z,96710.31
2023-03-10T09:09:07.806Z,96727.22
2023-03-10T09:11:39.157Z,96720.06
2023-03-10T09:14:09.819Z,96719.94
2023-03-10T09:16:39.375Z,96718.13
2023-03-10T09:19:07.259Z,96676.47
2023-03-10T09:21:34.990Z,96711.97
2023-03-10T09:24:05.861Z,96707.09
2023-03-10T09:26:34.478Z,96727.44
2023-03-10T09:29:02.231Z,96755.78
2023-03-10T09:31:33.533Z,96767.78
2023-03-10T09:34:01.352Z,96763.44
2023-03-10T09:36:29.650Z,96785.03
2023-03-10T09:38:59.057Z,96779.88
2023-03-10T09:42:14.835Z,96764.75
2023-03-10T09:44:51.257Z,96784.47
2023-03-10T09:47:35.883Z,96797.22
2023-03-10T09:50:17.151Z,96798.34
2023-03-10T09:52:47.666Z,96798.91
2023-03-10T09:55:21.204Z,96811.34
2023-03-10T09:57:51.617Z,96816.16
2023-03-10T10:00:23.403Z,96807.84
2023-03-10T10:03:04.655Z,96815.34
2023-03-10T10:05:35.680Z,96806.50
2023-03-10T10:08:12.551Z,96793.19
2023-03-10T10:10:40.313Z,96812.41
2023-03-10T10:13:14.314Z,96816.47
2023-03-10T10:15:45.370Z,96807.84
2023-03-10T10:18:21.461Z,96809.94
2023-03-10T10:20:58.836Z,96825.38
2023-03-10T10:23:34.650Z,96827.19
2023-03-10T10:26:11.637Z,96794.41
2023-03-10T10:28:44.222Z,96833.25
2023-03-10T10:31:15.090Z,96845.66
2023-03-10T10:33:59.132Z,96843.56
2023-03-10T10:36:28.761Z,96865.41
2023-03-10T10:38:57.574Z,96858.03
2023-03-10T10:41:29.846Z,96874.38
2023-03-10T10:44:00.444Z,96855.34
2023-03-10T10:46:30.122Z,96891.38
2023-03-10T10:49:20.439Z,96901.00
2023-03-10T10:51:58.963Z,96884.53
2023-03-10T10:54:29.165Z,96902.13
2023-03-10T10:56:58.661Z,96904.69
2023-03-10T10:59:30.206Z,96907.72
2023-03-10T11:02:00.182Z,96917.44
2023-03-10T11:04:41.306Z,96928.44
2023-03-10T11:07:11.515Z,96921.28
2023-03-10T11:09:39.196Z,96914.78
2023-03-10T11:12:17.245Z,96915.56
2023-03-10T11:14:57.530Z,96891.72
2023-03-10T11:17:32.423Z,96919.72
2023-03-10T11:20:10.185Z,96923.88
2023-03-10T11:22:42.969Z,96909.19
2023-03-10T11:25:24.418Z,96899.22
2023-03-10T11:28:01.886Z,96894.84
2023-03-10T11:30:33.686Z,96906.19
2023-03-10T11:33:10.056Z,96917.16
2023-03-10T11:35:45.544Z,96908.75
2023-03-10T11:38:24.555Z,96882.44
2023-03-10T11:40:58.354Z,96908.06
2023-03-10T11:43:34.934Z,96905.28
2023-03-10T11:46:09.620Z,96916.91
2023-03-10T11:48:54.085Z,96919.63
2023-03-10T11:51:29.628Z,96927.31
2023-03-10T11:53:59.973Z,96941.78
2023-03-10T11:56:29.016Z,96954.00
2023-03-10T11:59:01.958Z,96956.78
2023-03-10T12:01:32.413Z,96938.66
2023-03-10T12:04:10.428Z,96958.81
2023-03-10T12:06:47.492Z,96968.81
2023-03-10T12:09:23.545Z,96971.38
2023-03-10T12:11:53.857Z,96965.66
2023-03-10T12:14:24.205Z,96981.75
2023-03-10T12:16:54.002Z,97001.72
2023-03-10T12:19:21.911Z,96999.25
2023-03-10T12:22:25.726Z,96961.34
2023-03-10T12:24:54.088Z,96996.00
2023-03-10T12:27:21.919Z,97016.59
2023-03-10T12:29:49.598Z,97021.78
2023-03-10T12:32:48.185Z,97029.50
2023-03-10T12:35:41.533Z,97028.94
2023-03-10T12:38:32.812Z,96989.69
2023-03-10T12:41:02.087Z,97035.59
2023-03-10T12:43:56.353Z,97009.34
2023-03-10T12:46:30.746Z,97014.75
2023-03-10T12:49:15.597Z,97034.91
2023-03-10T12:51:48.384Z,97035.53
2023-03-10T12:54:34.893Z,97056.28
2023-03-10T12:57:08.956Z,97053.69
2023-03-10T12:59:42.121Z,97077.47
2023-03-10T13:02:25.264Z,97104.47
2023-03-10T13:05:00.330Z,97115.22
2023-03-10T13:07:30.005Z,97137.94
2023-03-10T13:10:01.634Z,97157.31
2023-03-10T13:12:32.209Z,97157.59
2023-03-10T13:15:04.192Z,97184.91
2023-03-10T13:17:33.578Z,97192.25
2023-03-10T13:20:08.580Z,97179.44
2023-03-10T13:22:36.314Z,97224.72
2023-03-10T13:25:08.022Z,97237.19
2023-03-10T13:27:36.297Z,97248.72
2023-03-10T13:30:06.665Z,97245.28
2023-03-10T13:32:34.594Z,97272.59
2023-03-10T13:35:15.586Z,97268.56
2023-03-10T13:37:43.170Z,97287.13
2023-03-10T13:40:17.773Z,97311.06
2023-03-10T13:42:48.325Z,97333.06
2023-03-10T13:45:23.066Z,97345.38
2023-03-10T13:47:52.155Z,97401.84
2023-03-10T13:50:20.280Z,97421.50
2023-03-10T13:53:04.582Z,97440.31
2023-03-10T13:55:40.387Z,97456.31
2023-03-10T13:58:11.951Z,97468.81
2023-03-10T14:00:40.051Z,97471.38
2023-03-10T14:03:09.272Z,97480.28
2023-03-10T14:05:43.572Z,97492.72
2023-03-10T14:08:21.063Z,97514.88
2023-03-10T14:10:50.513Z,97445.16
2023-03-10T14:13:45.130Z,97514.88
2023-03-10T14:16:13.321Z,97539.97
2023-03-10T14:18:43.690Z,97533.88
2023-03-10T14:21:25.703Z,97548.69
2023-03-10T14:23:53.782Z,97582.09
2023-03-10T14:26:22.792Z,97580.50
2023-03-10T14:28:50.484Z,97592.16
2023-03-10T14:31:22.257Z,97602.44
2023-03-10T14:33:49.983Z,97563.88
2023-03-10T14:36:20.531Z,97659.94
2023-03-10T14:38:48.150Z,97641.72
2023-03-10T14:41:17.737Z,97662.03
2023-03-10T14:43:46.936Z,97697.84
2023-03-10T14:46:14.726Z,97707.09
2023-03-10T14:48:42.814Z,97704.66
2023-03-10T14:51:28.990Z,97743.59
2023-03-10T14:54:00.619Z,97740.00
2023-03-10T14:56:30.117Z,97739.00
2023-03-10T14:59:02.235Z,97754.84
2023-03-10T15:01:30.426Z,97778.94
2023-03-10T15:03:58.205Z,97749.22
2023-03-10T15:06:28.735Z,97779.41
2023-03-10T15:08:56.624Z,97779.66
2023-03-10T15:11:36.396Z,97794.63
2023-03-10T15:14:14.337Z,97736.34
2023-03-10T15:16:42.223Z,97783.72
2023-03-10T15:19:20.571Z,97775.59
2023-03-10T15:21:48.337Z,97786.66
2023-03-10T15:24:19.210Z,97795.56
2023-03-10T15:26:48.184Z,97804.72
2023-03-10T15:29:19.590Z,97811.59
2023-03-10T15:31:47.801Z,97816.56
2023-03-10T15:34:15.755Z,97840.38
2023-03-10T15:36:43.859Z,97827.97
2023-03-10T15:39:18.858Z,97860.91
2023-03-10T15:41:55.067Z,97883.13
2023-03-10T15:44:25.645Z,97878.25
2023-03-10T15:46:55.124Z,97856.56
2023-03-10T15:49:23.154Z,97846.50
2023-03-10T15:51:51.072Z,97902.06
2023-03-10T15:54:18.740Z,97913.50
2023-03-10T15:56:46.904Z,97901.34
2023-03-10T15:59:14.674Z,97915.44
2023-03-10T16:01:43.791Z,97889.28
2023-03-10T16:04:11.660Z,97884.97
2023-03-10T16:06:39.371Z,97903.41
2023-03-10T16:09:09.026Z,97939.97
2023-03-10T16:11:36.935Z,97986.47
2023-03-10T16:14:07.900Z,97997.25
2023-03-10T16:16:35.897Z,98014.00
2023-03-10T16:19:10.316Z,97944.16
2023-03-10T16:21:41.062Z,97975.78
2023-03-10T16:24:10.512Z,98027.56
2023-03-10T16:26:38.550Z,98050.03
2023-03-10T16:29:20.724Z,98069.13
2023-03-10T16:31:48.492Z,97874.28
2023-03-10T16:34:26.600Z,98052.13
2023-03-10T16:37:02.671Z,97886.75
2023-03-10T16:39:32.228Z,97912.69
2023-03-10T16:42:13.367Z,97863.41
2023-03-10T16:44:42.593Z,97982.63
2023-03-10T16:53:44.569Z,97990.66
2023-03-10T16:56:14.091Z,98012.91
2023-03-10T16:58:41.998Z,98093.75
2023-03-10T17:01:09.828Z,98127.28
2023-03-10T17:03:39.919Z,98098.63
2023-03-10T17:06:11.284Z,98099.44
2023-03-10T17:08:39.848Z,98146.59
2023-03-10T17:11:08.819Z,98137.59
2023-03-10T17:13:37.823Z,98126.19
2023-03-10T17:16:13.225Z,98171.84
2023-03-10T17:18:41.244Z,98178.19
2023-03-10T17:22:15.710Z,97997.69
2023-03-10T17:29:35.721Z,97984.97
2023-03-10T17:32:54.015Z,98079.13
2023-03-10T17:49:38.596Z,98314.72
2023-03-10T17:52:07.336Z,98321.09
2023-03-10T17:54:35.399Z,98313.03
2023-03-10T17:57:03.159Z,98332.00
2023-03-10T17:59:31.955Z,98340.16
2023-03-10T18:02:00.541Z,98342.56
2023-03-10T18:04:29.729Z,98361.84
2023-03-10T18:06:58.753Z,98364.50
2023-03-10T18:09:26.196Z,98372.41
2023-03-10T18:11:56.384Z,98375.56
2023-03-10T18:14:24.280Z,98389.38
2023-03-10T18:16:52.273Z,98394.28
2023-03-10T18:19:21.390Z,98399.13
2023-03-10T18:21:49.475Z,98406.56
2023-03-10T18:24:18.747Z,98415.63
2023-03-10T18:26:47.108Z,98421.00
2023-03-10T18:29:16.510Z,98417.78
2023-03-10T18:31:44.363Z,98443.50
2023-03-10T18:34:12.932Z,98449.25
2023-03-10T18:36:40.823Z,98448.16
2023-03-10T18:39:08.716Z,98445.25
2023-03-10T18:41:37.983Z,98453.22
2023-03-10T18:44:05.961Z,98456.59
2023-03-10T18:46:34.062Z,98446.16
2023-03-10T18:49:01.829Z,98449.53
2023-03-10T18:51:30.288Z,98448.25
2023-03-10T18:53:58.745Z,98450.22
2023-03-10T18:56:29.113Z,98469.81
2023-03-10T18:58:58.396Z,98476.88
2023-03-10T19:01:26.811Z,98482.91
2023-03-10T19:03:54.775Z,98476.19
2023-03-10T19:06:22.749Z,98458.44
2023-03-10T19:08:53.247Z,98485.56
2023-03-10T19:11:24.307Z,98494.97
2023-03-10T19:13:52.503Z,98509.31
2023-03-10T19:16:22.443Z,98504.00
2023-03-10T19:18:50.176Z,98501.38
2023-03-10T19:21:18.139Z,98517.91
2023-03-10T19:23:45.970Z,98535.56
2023-03-10T19:26:13.809Z,98553.63
2023-03-10T19:28:41.804Z,98574.59
2023-03-10T19:31:10.809Z,98585.81
2023-03-10T19:33:40.828Z,98595.59
2023-03-10T19:36:11.871Z,98597.13
2023-03-10T19:38:41.321Z,98611.66
2023-03-10T19:41:13.148Z,98621.41
2023-03-10T19:43:41.038Z,98639.56
2023-03-10T19:46:11.547Z,98640.72
2023-03-10T19:48:41.497Z,98659.13
2023-03-10T19:51:10.446Z,98671.47
2023-03-10T19:53:38.092Z,98683.06
2023-03-10T19:56:07.670Z,98685.75
2023-03-10T19:58:35.373Z,98699.41
2023-03-10T20:01:03.513Z,98713.56
2023-03-10T20:03:34.036Z,98734.97
2023-03-10T20:06:05.000Z,98749.69
2023-03-10T20:08:34.070Z,98744.06
2023-03-10T20:11:03.375Z,98739.66
2023-03-10T20:13:31.670Z,98758.34
2023-03-10T20:16:00.216Z,98760.97
2023-03-10T20:18:27.921Z,98790.19
2023-03-10T20:20:55.675Z,98776.69
2023-03-10T20:23:24.982Z,98807.34
2023-03-10T20:26:01.300Z,98810.22
2023-03-10T20:28:29.105Z,98815.56
2023-03-10T20:30:56.741Z,98823.88
2023-03-10T20:33:24.496Z,98824.50
2023-03-10T20:35:52.791Z,98833.81
2023-03-10T20:38:20.583Z,98822.16
2023-03-10T20:40:49.918Z,98851.66
2023-03-10T20:43:18.205Z,98852.78
2023-03-10T20:45:46.022Z,98861.28
2023-03-10T20:48:13.839Z,98862.56
2023-03-10T20:50:41.524Z,98870.41
2023-03-10T20:53:09.234Z,98889.03
2023-03-10T20:55:37.243Z,98893.84
2023-03-10T20:58:06.385Z,98910.25
2023-03-10T21:00:34.192Z,98923.44
2023-03-10T21:03:02.030Z,98933.88
2023-03-10T21:05:29.838Z,98939.00
2023-03-10T21:07:58.671Z,98951.53
2023-03-10T21:10:26.717Z,98965.84
2023-03-10T21:12:54.461Z,98961.97
2023-03-10T21:15:25.410Z,98959.09
2023-03-10T21:17:53.389Z,98987.19
2023-03-10T21:20:23.123Z,98992.03
2023-03-10T21:22:51.239Z,98993.63
2023-03-10T21:25:21.315Z,99008.84
2023-03-10T21:27:50.234Z,99015.94
2023-03-10T21:30:18.298Z,99021.09
2023-03-10T21:32:47.640Z,99022.34
2023-03-10T21:35:15.400Z,99025.56
2023-03-10T21:37:46.826Z,99032.47
2023-03-10T21:40:17.988Z,99030.06
2023-03-10T21:42:45.659Z,99032.31
2023-03-10T21:45:16.551Z,99034.91
2023-03-10T21:47:44.322Z,99047.75
2023-03-10T21:50:14.904Z,99054.47
2023-03-10T21:52:42.854Z,99057.03
2023-03-10T21:55:17.308Z,99068.28
2023-03-10T21:57:45.103Z,99076.63
2023-03-10T22:00:13.934Z,99074.53
2023-03-10T22:02:42.063Z,99073.06
2023-03-10T22:05:13.255Z,99094.94
2023-03-10T22:07:42.514Z,99092.50
2023-03-10T22:10:11.878Z,99107.13
2023-03-10T22:12:40.305Z,99096.34
2023-03-10T22:15:10.274Z,99114.78
2023-03-10T22:17:38.029Z,99110.75
2023-03-10T22:20:08.458Z,99101.75
2023-03-10T22:22:36.157Z,99110.63
2023-03-10T22:25:05.600Z,99111.25
2023-03-10T22:27:33.251Z,99110.91
2023-03-10T22:30:01.086Z,99110.09
2023-03-10T22:32:28.895Z,99121.00
2023-03-10T22:34:57.375Z,99126.28
2023-03-10T22:37:25.237Z,99129.66
2023-03-10T22:39:53.020Z,99137.66
2023-03-10T22:42:22.176Z,99156.72
2023-03-10T22:44:49.869Z,99167.63
2023-03-10T22:47:18.378Z,99171.50
2023-03-10T22:49:46.357Z,99177.91
2023-03-10T22:52:14.382Z,99189.50
2023-03-10T22:54:42.064Z,99179.91
2023-03-10T22:57:09.889Z,99196.13
2023-03-10T22:59:38.963Z,99206.78
2023-03-10T23:02:06.889Z,99232.34
2023-03-10T23:04:34.579Z,99255.31
2023-03-10T23:07:02.288Z,99271.72
2023-03-10T23:09:30.192Z,99273.19
2023-03-10T23:11:57.934Z,99286.81
2023-03-10T23:14:25.640Z,99288.94
2023-03-10T23:16:54.760Z,99300.22
2023-03-10T23:19:22.476Z,99305.19
2023-03-10T23:21:50.217Z,99309.75
2023-03-10T23:24:17.921Z,99319.97
2023-03-10T23:26:45.592Z,99310.34
2023-03-10T23:29:13.637Z,99336.13
2023-03-10T23:31:41.404Z,99358.53
2023-03-10T23:34:10.426Z,99366.00
2023-03-10T23:36:38.100Z,99379.38
2023-03-10T23:39:07.508Z,99377.31
2023-03-10T23:41:35.127Z,99386.50
2023-03-10T23:44:03.168Z,99388.41
2023-03-10T23:46:30.924Z,99385.31
2023-03-10T23:48:58.833Z,99395.88
2023-03-10T23:51:28.897Z,99400.84
2023-03-10T23:53:56.562Z,99407.56
2023-03-10T23:56:24.258Z,99405.31
2023-03-10T23:58:51.946Z,99409.81
